General Aviation Weather

Text Reports

Enter one or more of the following location identifiers separated by a space:

Zip Code, Four-Character ICAO or Three-Character IATA airport codes.

METAR - Aviation Routine Weather Report
KCPC - Whiteville, North Carolina
Updated at 7:55 PM GMT on October 21, 2014 (3:55 PM EDT):
METAR KCPC 211955Z AUTO 00000KT 10SM CLR 25/08 A2984 RMK AO2 T02470084
TAF - Terminal Area Forecast
KCPC - Whiteville, North Carolina
Updated at 7:55 PM GMT on October 21, 2014 (3:55 PM EDT):
No TAF is currently available for this location.
Decoded:
No decoded TAF is available.
PIREP - Pilot Weather Report
KCPC - Whiteville, North Carolina
Updated at 7:55 PM GMT on October 21, 2014 (3:55 PM EDT):
No PIREP is currently available for this location.
AIRMET - Airmens Meteorological Information
KCPC - Whiteville, North Carolina
Updated at 7:55 PM GMT on October 21, 2014 (3:55 PM EDT):
No AIRMET is currently available for this location.
SIGMET - Significant Meteorological Information
KCPC - Whiteville, North Carolina
Updated at 7:55 PM GMT on October 21, 2014 (3:55 PM EDT):
No SIGMET is currently available for this location.
NOTAM - Notice to Airmen
KCPC - Whiteville, North Carolina
Updated at 7:55 PM GMT on October 21, 2014 (3:55 PM EDT):
No NOTAM is currently available for this location.
Forecast Area
KCPC - Whiteville, North Carolina
Updated at 7:55 PM GMT on October 21, 2014 (3:55 PM EDT):
No NOTAM is currently available for this location.
Aviation Weather Maps